PCT weather

Public forecast

Using degrees Fahrenheit for public forecast. Weather courtesy of forecast.io.

Closest aviation weather report (METAR) to Princeton Airport

Closest report is Trenton Mercer Airport, 10.2 nm (18.9 km) SW. Retrieved 2020/08/11 23:53 UTC (37 minutes ago):

KTTN 112353Z 17006KT 10SM BKN042 OVC050 28/23 A2991 RMK AO2 SLP121 T02830233 10306 20283 55000

Closest aviation forecast (TAF) to Princeton Airport

Closest forecast is Trenton Mercer Airport, 10.2 nm (18.9 km) SW. Retrieved 2020-08-12 00:27 UTC (3 minutes ago):

TAF KTTN 112325Z 1200/1224 18009KT P6SM FEW040 FM120100 19004KT P6SM SCT060 FM120900 VRB02KT 5SM BR BKN045 FM121200 22004KT P6SM BKN045 FM121800 21006KT P6SM VCTS BKN045CB